Time;durP1;ratioP1;P1;durP2;ratioP2;P2;SDS_P1;SDS_P2;PMS_P1;PMS_P2;Temp;Humidity;BMP_temperature;BMP_pressure;BME280_temperature;BME280_humidity;BME280_pressure;Samples;Min_cycle;Max_cycle;Signal;HPM_P1;HPM_P2
2023/09/12 00:01:46;;;;;;;13.32;9.13;;;;;;;;;;4996506;28;20101;-75
2023/09/12 00:04:12;;;;;;;12.05;9.20;;;;;;;;;;4978996;28;20468;-74
2023/09/12 00:06:37;;;;;;;12.20;8.82;;;;;;;;;;4996352;28;20392;-75
2023/09/12 00:09:05;;;;;;;10.23;8.40;;;;;;;;;;4996348;28;20034;-74
2023/09/12 00:11:30;;;;;;;11.20;9.02;;;;;;;;;;4979610;28;20441;-74
2023/09/12 00:13:56;;;;;;;14.82;9.43;;;;;;;;;;4996495;28;20030;-74
2023/09/12 00:16:21;;;;;;;13.93;9.27;;;;;;;;;;4996081;28;20392;-74
2023/09/12 00:18:46;;;;;;;13.17;8.77;;;;;;;;;;4996438;28;20260;-75
2023/09/12 00:21:11;;;;;;;14.10;9.03;;;;;;;;;;4996019;28;20264;-74
2023/09/12 00:23:37;;;;;;;12.90;9.38;;;;;;;;;;4996128;28;20264;-74
2023/09/12 00:26:02;;;;;;;11.07;8.73;;;;;;;;;;4995983;28;20015;-74
2023/09/12 00:28:27;;;;;;;15.65;8.93;;;;;;;;;;4995884;28;20022;-74
2023/09/12 00:30:53;;;;;;;15.13;9.30;;;;;;;;;;4995790;28;20022;-73
2023/09/12 00:33:18;;;;;;;11.77;9.02;;;;;;;;;;4995880;28;20363;-73
2023/09/12 00:35:44;;;;;;;15.02;9.20;;;;;;;;;;4995792;28;20054;-73
2023/09/12 00:38:10;;;;;;;10.93;8.80;;;;;;;;;;4978239;28;20093;-74
2023/09/12 00:40:35;;;;;;;16.70;9.35;;;;;;;;;;4995406;28;20053;-73
2023/09/12 00:43:00;;;;;;;17.25;9.95;;;;;;;;;;4995893;28;20057;-74
2023/09/12 00:45:26;;;;;;;17.30;9.70;;;;;;;;;;4995635;28;20028;-73
2023/09/12 00:47:52;;;;;;;13.90;9.85;;;;;;;;;;4978081;28;20259;-74
2023/09/12 00:50:20;;;;;;;13.52;9.70;;;;;;;;;;4978767;28;20034;-73
2023/09/12 00:52:46;;;;;;;11.50;9.23;;;;;;;;;;4995585;28;20092;-74
2023/09/12 00:55:11;;;;;;;13.38;9.23;;;;;;;;;;4995475;28;20493;-73
2023/09/12 00:57:37;;;;;;;12.07;9.18;;;;;;;;;;4995365;28;20389;-74
2023/09/12 01:00:10;;;;;;;13.38;9.77;;;;;;;;;;4995368;28;20038;-74
2023/09/12 01:02:46;;;;;;;13.57;9.15;;;;;;;;;;4995577;28;20377;-74
2023/09/12 02:09:03;;;;;;;13.70;9.10;;;;;;;;;;4994363;28;20037;-74
2023/09/12 02:11:29;;;;;;;14.00;9.70;;;;;;;;;;4976796;28;20026;-74
2023/09/12 02:13:54;;;;;;;15.60;9.63;;;;;;;;;;4994044;28;20484;-74
2023/09/12 02:16:19;;;;;;;15.55;10.18;;;;;;;;;;4993226;28;20040;-74
2023/09/12 02:18:44;;;;;;;12.27;9.75;;;;;;;;;;4994475;28;20386;-74
2023/09/12 02:21:10;;;;;;;15.33;9.47;;;;;;;;;;4994510;28;20081;-74
2023/09/12 02:23:35;;;;;;;12.43;9.93;;;;;;;;;;4993842;28;20623;-74
2023/09/12 02:26:00;;;;;;;13.63;9.70;;;;;;;;;;4976331;28;20024;-74
2023/09/12 02:28:25;;;;;;;12.60;9.33;;;;;;;;;;4976355;28;20290;-74
2023/09/12 02:30:51;;;;;;;11.55;9.63;;;;;;;;;;4976338;28;20315;-74
2023/09/12 02:33:16;;;;;;;17.90;10.20;;;;;;;;;;4993708;28;20460;-74
2023/09/12 02:35:41;;;;;;;13.43;10.03;;;;;;;;;;4994142;28;20276;-74
2023/09/12 02:38:07;;;;;;;12.23;9.40;;;;;;;;;;4976721;28;20252;-74
2023/09/12 02:40:32;;;;;;;13.23;9.90;;;;;;;;;;4976339;28;20264;-74
2023/09/12 02:42:57;;;;;;;12.40;10.30;;;;;;;;;;4993722;28;20062;-74
2023/09/12 02:45:22;;;;;;;14.40;9.43;;;;;;;;;;4993531;28;20390;-74
2023/09/12 02:47:48;;;;;;;11.40;9.75;;;;;;;;;;4976296;28;20110;-74
2023/09/12 02:50:13;;;;;;;10.40;9.00;;;;;;;;;;4976075;28;20493;-74
2023/09/12 02:52:38;;;;;;;12.43;9.98;;;;;;;;;;4993846;28;20022;-74
2023/09/12 02:55:04;;;;;;;18.10;10.37;;;;;;;;;;4993269;28;20409;-74
2023/09/12 02:57:29;;;;;;;12.93;9.65;;;;;;;;;;4993342;28;20355;-74
2023/09/12 02:59:54;;;;;;;14.13;9.73;;;;;;;;;;4993668;28;20045;-74
2023/09/12 03:02:20;;;;;;;16.10;9.93;;;;;;;;;;4993571;28;20026;-74
2023/09/12 03:04:45;;;;;;;13.47;9.77;;;;;;;;;;4993360;28;20025;-74
2023/09/12 03:07:10;;;;;;;15.23;9.97;;;;;;;;;;4993682;28;20296;-75
2023/09/12 03:09:37;;;;;;;13.87;9.83;;;;;;;;;;4993305;28;20267;-74
2023/09/12 03:12:03;;;;;;;12.65;9.65;;;;;;;;;;4993521;28;20252;-74
2023/09/12 03:14:29;;;;;;;13.52;9.70;;;;;;;;;;4993537;28;20077;-74
2023/09/12 03:16:54;;;;;;;12.85;9.52;;;;;;;;;;4993302;28;20497;-74
2023/09/12 03:19:19;;;;;;;11.85;9.35;;;;;;;;;;4993427;28;20035;-74
2023/09/12 03:21:44;;;;;;;14.27;9.90;;;;;;;;;;4993114;28;20493;-75
2023/09/12 03:24:10;;;;;;;11.73;9.87;;;;;;;;;;4993193;28;20339;-74
2023/09/12 03:26:36;;;;;;;13.27;9.90;;;;;;;;;;4993872;28;20263;-74
2023/09/12 03:29:03;;;;;;;11.70;9.88;;;;;;;;;;4979599;28;20077;-74
2023/09/12 03:31:28;;;;;;;14.13;10.32;;;;;;;;;;4996977;28;20401;-75
2023/09/12 03:33:54;;;;;;;12.40;9.95;;;;;;;;;;4996869;28;20022;-74
2023/09/12 03:36:19;;;;;;;12.52;9.65;;;;;;;;;;4997124;28;20425;-74
2023/09/12 03:38:44;;;;;;;11.48;9.57;;;;;;;;;;4996937;28;20030;-74
2023/09/12 03:41:10;;;;;;;12.73;9.95;;;;;;;;;;4979318;28;20026;-74
2023/09/12 03:43:36;;;;;;;16.65;9.57;;;;;;;;;;4996739;28;20493;-74
2023/09/12 03:46:03;;;;;;;13.90;9.90;;;;;;;;;;4979275;28;20022;-74
2023/09/12 03:48:30;;;;;;;18.63;10.10;;;;;;;;;;4996798;28;20034;-74
2023/09/12 03:50:55;;;;;;;17.70;10.32;;;;;;;;;;4996689;28;20022;-74
2023/09/12 03:53:20;;;;;;;17.50;10.02;;;;;;;;;;4996614;28;20061;-74
2023/09/12 03:55:46;;;;;;;15.88;9.77;;;;;;;;;;4996493;28;20076;-74
2023/09/12 03:58:11;;;;;;;13.68;9.52;;;;;;;;;;4979355;28;20140;-75
2023/09/12 04:00:36;;;;;;;14.77;10.02;;;;;;;;;;4996392;28;20030;-74
2023/09/12 04:03:02;;;;;;;11.80;9.80;;;;;;;;;;4978929;28;20182;-74
2023/09/12 04:05:27;;;;;;;14.20;10.68;;;;;;;;;;4996429;28;20101;-75
2023/09/12 04:07:52;;;;;;;19.83;12.47;;;;;;;;;;4996324;28;20062;-73
2023/09/12 04:10:19;;;;;;;12.90;10.90;;;;;;;;;;4979459;28;20268;-74
2023/09/12 04:12:44;;;;;;;15.30;10.27;;;;;;;;;;4996721;28;20264;-74
2023/09/12 04:15:10;;;;;;;18.17;9.97;;;;;;;;;;4996238;28;20030;-74
2023/09/12 04:17:35;;;;;;;13.97;9.77;;;;;;;;;;4996073;28;20260;-74
2023/09/12 04:20:00;;;;;;;12.70;9.77;;;;;;;;;;4996341;28;20358;-75
2023/09/12 04:22:26;;;;;;;18.58;11.07;;;;;;;;;;4995999;28;20389;-74
2023/09/12 04:24:51;;;;;;;12.70;9.60;;;;;;;;;;4978566;28;20026;-74
2023/09/12 04:27:16;;;;;;;13.50;10.50;;;;;;;;;;4995984;28;20504;-74
2023/09/12 04:29:41;;;;;;;14.75;10.23;;;;;;;;;;4995994;28;20735;-74
2023/09/12 04:32:07;;;;;;;14.57;10.30;;;;;;;;;;4995901;28;20034;-74
2023/09/12 04:34:32;;;;;;;14.07;10.00;;;;;;;;;;4978627;28;20270;-74
2023/09/12 04:36:57;;;;;;;15.27;10.27;;;;;;;;;;4996182;28;20634;-74
2023/09/12 04:39:23;;;;;;;12.77;9.80;;;;;;;;;;4994912;28;20023;-74
2023/09/12 04:41:48;;;;;;;15.75;9.85;;;;;;;;;;4996139;28;20057;-74
2023/09/12 04:44:13;;;;;;;12.90;10.07;;;;;;;;;;4996240;28;20026;-74
2023/09/12 04:46:39;;;;;;;15.80;9.90;;;;;;;;;;4995789;28;20024;-74
2023/09/12 04:49:04;;;;;;;15.35;10.27;;;;;;;;;;4978204;28;20045;-74
2023/09/12 04:51:29;;;;;;;12.45;9.85;;;;;;;;;;4995503;28;20436;-74
2023/09/12 04:53:54;;;;;;;14.13;10.45;;;;;;;;;;4978083;28;20027;-75
2023/09/12 04:56:20;;;;;;;17.85;10.75;;;;;;;;;;4977916;28;20400;-76
2023/09/12 04:58:45;;;;;;;16.80;10.50;;;;;;;;;;4995800;28;20068;-74
2023/09/12 05:01:10;;;;;;;11.77;9.53;;;;;;;;;;4996093;28;20034;-74
2023/09/12 05:03:35;;;;;;;15.23;10.83;;;;;;;;;;4995333;28;20264;-74
2023/09/12 05:06:01;;;;;;;14.47;10.60;;;;;;;;;;4977948;28;20727;-74
2023/09/12 05:08:26;;;;;;;13.35;10.18;;;;;;;;;;4995223;28;20309;-74
2023/09/12 05:10:51;;;;;;;17.90;10.20;;;;;;;;;;4977826;28;20065;-74
2023/09/12 05:13:17;;;;;;;16.55;10.20;;;;;;;;;;4995163;28;20054;-74
2023/09/12 05:15:43;;;;;;;15.20;10.15;;;;;;;;;;4995185;28;20050;-74
2023/09/12 05:18:08;;;;;;;21.00;9.65;;;;;;;;;;4995298;28;20030;-75
2023/09/12 05:20:34;;;;;;;12.63;9.13;;;;;;;;;;4994947;28;20117;-75
2023/09/12 05:23:00;;;;;;;18.63;10.15;;;;;;;;;;4994848;28;20073;-74
2023/09/12 05:25:26;;;;;;;13.25;10.20;;;;;;;;;;4977431;28;20053;-74
2023/09/12 05:27:52;;;;;;;20.33;9.77;;;;;;;;;;4977462;28;20084;-75
2023/09/12 05:30:17;;;;;;;16.45;9.82;;;;;;;;;;4995148;28;20039;-75
2023/09/12 05:32:42;;;;;;;13.73;10.00;;;;;;;;;;4994845;28;20026;-74
2023/09/12 05:35:07;;;;;;;24.88;10.38;;;;;;;;;;4995056;28;20283;-74
2023/09/12 05:37:33;;;;;;;14.57;9.70;;;;;;;;;;4994949;28;20030;-75
2023/09/12 05:39:58;;;;;;;11.40;9.45;;;;;;;;;;4994558;28;20034;-74
2023/09/12 05:42:23;;;;;;;12.13;9.60;;;;;;;;;;4994478;28;20026;-75
2023/09/12 05:44:56;;;;;;;18.67;9.83;;;;;;;;;;4994403;28;20477;-75
2023/09/12 05:47:22;;;;;;;17.42;10.32;;;;;;;;;;4977543;28;20321;-75
2023/09/12 05:49:47;;;;;;;14.40;9.80;;;;;;;;;;4994451;28;20504;-74
2023/09/12 05:52:12;;;;;;;14.07;9.93;;;;;;;;;;4994297;28;20030;-74
2023/09/12 05:54:39;;;;;;;12.52;9.52;;;;;;;;;;4994153;28;20493;-75
2023/09/12 05:57:04;;;;;;;13.68;9.45;;;;;;;;;;4994526;28;20050;-76
2023/09/12 05:59:30;;;;;;;16.73;9.68;;;;;;;;;;4976920;28;20490;-74
2023/09/12 06:01:55;;;;;;;15.70;9.73;;;;;;;;;;4994279;28;20058;-74
2023/09/12 06:04:21;;;;;;;19.30;10.82;;;;;;;;;;4994440;28;20260;-74
2023/09/12 06:06:47;;;;;;;14.15;10.60;;;;;;;;;;4994543;28;20108;-74
2023/09/12 06:09:12;;;;;;;13.60;9.15;;;;;;;;;;4994122;28;20567;-74
2023/09/12 06:11:37;;;;;;;12.07;9.55;;;;;;;;;;4994540;28;20025;-74
2023/09/12 06:14:02;;;;;;;14.27;9.57;;;;;;;;;;4976612;28;20030;-74
2023/09/12 06:16:28;;;;;;;13.25;9.30;;;;;;;;;;4993901;28;20321;-74
2023/09/12 06:18:53;;;;;;;12.82;9.90;;;;;;;;;;4994293;28;20030;-74
2023/09/12 06:21:21;;;;;;;17.65;9.07;;;;;;;;;;4976530;28;20029;-74
2023/09/12 06:24:06;;;;;;;15.95;10.60;;;;;;;;;;4993769;28;20046;-74
2023/09/12 06:26:31;;;;;;;13.40;9.18;;;;;;;;;;4976422;28;20026;-74
2023/09/12 06:28:56;;;;;;;14.20;8.57;;;;;;;;;;4976652;28;20022;-74
2023/09/12 06:31:22;;;;;;;16.57;8.93;;;;;;;;;;4994285;28;20310;-75
2023/09/12 06:33:47;;;;;;;10.88;8.80;;;;;;;;;;4993906;28;20287;-74
2023/09/12 06:36:12;;;;;;;14.82;9.07;;;;;;;;;;4993877;28;20026;-74
2023/09/12 06:38:37;;;;;;;22.40;8.88;;;;;;;;;;4976704;28;20026;-74
2023/09/12 06:41:04;;;;;;;11.53;8.80;;;;;;;;;;4993945;28;20474;-74
2023/09/12 06:43:30;;;;;;;14.55;9.40;;;;;;;;;;4993455;28;20264;-74
2023/09/12 06:45:55;;;;;;;15.85;9.10;;;;;;;;;;4993540;28;20124;-75
2023/09/12 06:48:21;;;;;;;16.73;8.73;;;;;;;;;;4993782;28;20122;-74
2023/09/12 06:50:46;;;;;;;11.85;8.98;;;;;;;;;;4993422;28;20264;-74
2023/09/12 06:53:11;;;;;;;15.70;9.23;;;;;;;;;;4975972;28;20022;-74
2023/09/12 06:55:37;;;;;;;13.23;9.07;;;;;;;;;;4993325;28;20280;-74
2023/09/12 06:58:03;;;;;;;12.75;8.85;;;;;;;;;;4993720;28;20268;-74
2023/09/12 07:00:28;;;;;;;12.45;8.73;;;;;;;;;;4993365;28;20034;-74
2023/09/12 07:02:54;;;;;;;13.10;9.00;;;;;;;;;;4998295;28;20030;-74
2023/09/12 07:05:19;;;;;;;13.45;9.00;;;;;;;;;;4999977;28;20106;-75
2023/09/12 07:07:44;;;;;;;12.63;9.00;;;;;;;;;;4982283;28;20049;-75
2023/09/12 07:10:09;;;;;;;12.15;9.23;;;;;;;;;;4999733;28;20726;-74
2023/09/12 07:12:35;;;;;;;14.35;9.27;;;;;;;;;;4999588;28;20053;-74
2023/09/12 07:15:00;;;;;;;15.82;9.23;;;;;;;;;;4982155;28;20552;-74
2023/09/12 07:17:27;;;;;;;12.73;8.68;;;;;;;;;;4999908;28;20030;-75
2023/09/12 07:19:53;;;;;;;15.27;9.15;;;;;;;;;;4999648;28;20042;-75
2023/09/12 07:22:18;;;;;;;12.63;9.10;;;;;;;;;;4999661;28;20022;-74
2023/09/12 07:24:43;;;;;;;14.25;9.25;;;;;;;;;;4999884;28;20268;-75
2023/09/12 07:27:08;;;;;;;11.97;8.60;;;;;;;;;;4999778;28;20485;-75
2023/09/12 07:29:34;;;;;;;13.23;8.90;;;;;;;;;;5000021;28;20260;-75
2023/09/12 07:31:59;;;;;;;14.40;8.52;;;;;;;;;;4999691;28;20259;-75
2023/09/12 07:34:24;;;;;;;11.88;7.75;;;;;;;;;;4999646;28;20038;-75
2023/09/12 07:36:51;;;;;;;14.25;8.63;;;;;;;;;;4999691;28;20474;-75
2023/09/12 07:39:17;;;;;;;16.95;8.60;;;;;;;;;;4999776;28;20034;-75
2023/09/12 07:41:42;;;;;;;13.20;8.90;;;;;;;;;;4981849;28;20034;-75
2023/09/12 07:44:10;;;;;;;13.33;8.50;;;;;;;;;;4999413;28;20524;-75
2023/09/12 07:46:38;;;;;;;10.05;8.70;;;;;;;;;;4982420;28;20272;-75
2023/09/12 07:49:03;;;;;;;13.95;9.05;;;;;;;;;;4999451;28;20409;-75
2023/09/12 07:51:28;;;;;;;12.52;9.30;;;;;;;;;;4999405;28;20028;-75
2023/09/12 07:53:53;;;;;;;15.55;9.07;;;;;;;;;;4982444;28;20034;-74
2023/09/12 07:56:19;;;;;;;12.33;8.70;;;;;;;;;;5000298;28;20142;-75
2023/09/12 07:58:44;;;;;;;11.23;8.30;;;;;;;;;;5000415;28;20321;-75
2023/09/12 08:01:09;;;;;;;12.13;8.68;;;;;;;;;;5000414;28;20260;-75
2023/09/12 08:03:36;;;;;;;15.05;8.48;;;;;;;;;;4982720;28;20030;-75
2023/09/12 08:06:02;;;;;;;12.40;8.52;;;;;;;;;;4982187;28;20018;-75
2023/09/12 08:08:28;;;;;;;15.43;9.23;;;;;;;;;;4999430;28;20053;-75
2023/09/12 08:10:53;;;;;;;14.15;8.40;;;;;;;;;;4981806;28;20086;-75
2023/09/12 08:13:19;;;;;;;13.10;9.07;;;;;;;;;;4997237;28;20042;-77
2023/09/12 08:15:44;;;;;;;14.00;8.17;;;;;;;;;;4996969;28;20035;-74
2023/09/12 08:18:10;;;;;;;16.13;8.17;;;;;;;;;;4996294;28;20270;-75
2023/09/12 08:20:35;;;;;;;14.23;8.27;;;;;;;;;;4996655;28;20815;-75
2023/09/12 08:23:00;;;;;;;11.83;8.40;;;;;;;;;;4995992;28;20049;-75
2023/09/12 08:25:26;;;;;;;11.48;7.57;;;;;;;;;;4996251;28;20260;-75
2023/09/12 08:27:52;;;;;;;11.98;7.93;;;;;;;;;;4995711;28;20077;-76
2023/09/12 08:30:17;;;;;;;10.50;7.80;;;;;;;;;;4996382;28;20033;-75
2023/09/12 08:32:45;;;;;;;10.93;8.05;;;;;;;;;;4996074;28;20029;-76
2023/09/12 08:35:12;;;;;;;10.90;7.60;;;;;;;;;;4996118;28;20022;-75
2023/09/12 08:37:39;;;;;;;10.65;7.32;;;;;;;;;;4994722;28;20026;-73
2023/09/12 08:40:07;;;;;;;10.75;7.30;;;;;;;;;;4996797;28;20540;-75
2023/09/12 08:42:38;;;;;;;11.80;7.57;;;;;;;;;;4995420;28;20076;-75
2023/09/12 08:45:04;;;;;;;14.13;7.78;;;;;;;;;;4976905;28;20023;-74
2023/09/12 08:47:31;;;;;;;12.13;7.60;;;;;;;;;;4977380;28;20026;-74
2023/09/12 08:49:57;;;;;;;12.50;6.60;;;;;;;;;;4995354;28;20023;-77
2023/09/12 08:52:22;;;;;;;9.15;6.53;;;;;;;;;;4979755;28;20504;-75
2023/09/12 08:54:47;;;;;;;8.70;5.37;;;;;;;;;;4993991;28;20028;-74
2023/09/12 08:57:13;;;;;;;6.73;5.60;;;;;;;;;;4993552;28;20351;-75
2023/09/12 08:59:40;;;;;;;9.48;5.85;;;;;;;;;;4993804;28;20682;-75
2023/09/12 09:02:08;;;;;;;13.07;6.43;;;;;;;;;;4992777;28;20045;-75
2023/09/12 09:04:34;;;;;;;9.45;5.55;;;;;;;;;;4994095;28;20022;-75
2023/09/12 09:07:01;;;;;;;8.88;5.30;;;;;;;;;;4994236;28;20166;-74
2023/09/12 09:09:30;;;;;;;12.88;6.50;;;;;;;;;;4994320;28;20026;-75
2023/09/12 09:11:55;;;;;;;9.73;6.05;;;;;;;;;;4994749;28;20030;-74
2023/09/12 09:14:20;;;;;;;11.38;6.07;;;;;;;;;;4977616;28;20029;-74
2023/09/12 09:16:46;;;;;;;8.35;5.78;;;;;;;;;;4995140;28;20047;-74
2023/09/12 09:19:11;;;;;;;9.10;5.63;;;;;;;;;;4977496;28;20536;-74
2023/09/12 09:21:40;;;;;;;10.15;5.40;;;;;;;;;;4995422;28;20049;-74
2023/09/12 09:24:10;;;;;;;10.95;5.45;;;;;;;;;;4994822;28;20036;-74
2023/09/12 09:26:45;;;;;;;10.20;6.03;;;;;;;;;;4994726;28;20030;-74
2023/09/12 09:29:13;;;;;;;11.82;6.05;;;;;;;;;;4994974;28;20061;-74
2023/09/12 09:31:43;;;;;;;12.50;5.60;;;;;;;;;;4994973;28;20022;-74
2023/09/12 09:34:16;;;;;;;8.95;5.25;;;;;;;;;;4994674;28;20025;-75
2023/09/12 09:36:52;;;;;;;8.13;4.67;;;;;;;;;;4994593;28;20133;-75
2023/09/12 09:39:22;;;;;;;9.40;4.95;;;;;;;;;;4994929;28;20030;-73
2023/09/12 09:41:49;;;;;;;8.98;4.80;;;;;;;;;;4994829;28;20100;-75
2023/09/12 09:44:14;;;;;;;7.75;4.95;;;;;;;;;;4994410;28;20030;-75
2023/09/12 09:46:43;;;;;;;8.07;5.20;;;;;;;;;;4976949;28;20033;-75
2023/09/12 09:49:16;;;;;;;6.82;5.22;;;;;;;;;;4994319;28;20041;-75
2023/09/12 09:51:44;;;;;;;9.68;4.82;;;;;;;;;;4994209;28;20037;-75
2023/09/12 09:54:11;;;;;;;7.88;5.20;;;;;;;;;;4994101;28;20074;-75
2023/09/12 09:56:47;;;;;;;6.82;4.43;;;;;;;;;;4994390;28;20560;-75
2023/09/12 09:59:21;;;;;;;11.93;4.40;;;;;;;;;;4994769;28;20157;-74
2023/09/12 10:01:48;;;;;;;9.38;4.88;;;;;;;;;;4994337;28;20034;-75
2023/09/12 10:04:15;;;;;;;9.50;5.15;;;;;;;;;;4994351;28;20030;-75
2023/09/12 10:06:43;;;;;;;7.32;4.55;;;;;;;;;;4994404;28;20482;-75
2023/09/12 10:09:11;;;;;;;6.97;4.38;;;;;;;;;;4994194;28;20398;-75
2023/09/12 10:11:39;;;;;;;6.80;4.25;;;;;;;;;;4995465;28;20022;-75
2023/09/12 10:14:05;;;;;;;7.68;4.43;;;;;;;;;;4994484;28;20023;-74
2023/09/12 10:16:44;;;;;;;6.28;4.35;;;;;;;;;;4994198;28;20036;-74
2023/09/12 10:19:14;;;;;;;7.57;4.90;;;;;;;;;;4994147;28;20022;-75
2023/09/12 10:21:47;;;;;;;7.88;4.43;;;;;;;;;;4976327;28;20034;-74
2023/09/12 10:24:14;;;;;;;7.18;4.00;;;;;;;;;;4994448;28;20080;-75
2023/09/12 10:26:43;;;;;;;8.50;4.55;;;;;;;;;;4994061;28;20334;-75
2023/09/12 10:29:10;;;;;;;8.07;4.07;;;;;;;;;;4993733;28;20023;-75
2023/09/12 10:31:35;;;;;;;8.02;4.40;;;;;;;;;;4976121;28;20120;-75
2023/09/12 10:34:02;;;;;;;7.30;4.32;;;;;;;;;;4993800;28;20443;-75
2023/09/12 10:36:29;;;;;;;9.27;4.47;;;;;;;;;;4992987;28;20026;-75
2023/09/12 10:38:54;;;;;;;10.15;4.68;;;;;;;;;;4993856;28;20482;-75
2023/09/12 10:41:21;;;;;;;11.98;4.72;;;;;;;;;;4993535;28;20034;-73
2023/09/12 10:43:50;;;;;;;7.20;3.92;;;;;;;;;;4993910;28;20022;-75
2023/09/12 10:46:15;;;;;;;9.00;4.28;;;;;;;;;;4992675;28;20397;-71
2023/09/12 10:48:41;;;;;;;10.48;4.50;;;;;;;;;;4993793;28;20033;-75
2023/09/12 10:51:08;;;;;;;10.98;4.50;;;;;;;;;;4993379;28;20026;-73
2023/09/12 10:53:33;;;;;;;13.02;4.75;;;;;;;;;;4993042;28;20018;-74
2023/09/12 10:56:20;;;;;;;11.57;4.20;;;;;;;;;;4975910;28;20026;-74
2023/09/12 10:59:04;;;;;;;6.70;3.40;;;;;;;;;;4976572;28;20037;-75
2023/09/12 11:01:30;;;;;;;11.38;4.32;;;;;;;;;;4993391;28;20026;-76
2023/09/12 11:03:55;;;;;;;6.53;4.32;;;;;;;;;;4993213;28;20038;-75
2023/09/12 11:06:22;;;;;;;5.22;3.78;;;;;;;;;;4993270;28;20025;-75
2023/09/12 11:09:13;;;;;;;10.32;4.20;;;;;;;;;;4975879;28;20033;-74
2023/09/12 11:11:42;;;;;;;8.18;4.30;;;;;;;;;;4993479;28;20023;-74
2023/09/12 11:14:08;;;;;;;12.55;4.28;;;;;;;;;;4993203;28;20052;-75
2023/09/12 11:16:35;;;;;;;11.85;3.65;;;;;;;;;;4993103;28;20481;-74
2023/09/12 11:19:20;;;;;;;6.28;3.60;;;;;;;;;;4993239;28;20110;-75
2023/09/12 11:21:47;;;;;;;11.75;4.00;;;;;;;;;;4993386;28;20432;-74
2023/09/12 11:24:13;;;;;;;14.38;3.80;;;;;;;;;;4975774;28;20031;-75
2023/09/12 11:26:58;;;;;;;9.15;4.00;;;;;;;;;;4993409;28;20022;-74
2023/09/12 11:29:38;;;;;;;12.52;3.92;;;;;;;;;;4975727;28;20113;-74
2023/09/12 11:32:04;;;;;;;13.48;4.40;;;;;;;;;;4992952;28;20106;-75
2023/09/12 11:34:37;;;;;;;8.15;3.97;;;;;;;;;;4993534;28;20047;-77
2023/09/12 11:37:04;;;;;;;13.55;3.95;;;;;;;;;;4993759;28;20388;-74
2023/09/12 11:39:31;;;;;;;18.73;4.20;;;;;;;;;;4994521;28;20399;-83
2023/09/12 11:42:00;;;;;;;10.90;3.97;;;;;;;;;;4993362;28;20022;-75
2023/09/12 11:44:26;;;;;;;8.68;3.80;;;;;;;;;;4993254;28;20482;-75
2023/09/12 11:46:53;;;;;;;11.35;3.58;;;;;;;;;;4992979;28;20375;-74
2023/09/12 11:49:19;;;;;;;12.15;4.35;;;;;;;;;;4978707;28;20030;-75
2023/09/12 11:51:53;;;;;;;13.20;3.88;;;;;;;;;;4979148;28;20058;-77
2023/09/12 11:54:26;;;;;;;17.15;4.75;;;;;;;;;;4996638;28;20141;-76
2023/09/12 11:56:56;;;;;;;12.00;4.35;;;;;;;;;;4979044;28;20054;-74
2023/09/12 11:59:26;;;;;;;10.80;3.60;;;;;;;;;;4979169;28;20033;-76
2023/09/12 12:01:52;;;;;;;9.18;4.13;;;;;;;;;;4996420;28;20113;-75
2023/09/12 12:04:21;;;;;;;10.75;3.97;;;;;;;;;;4979090;28;20485;-76
2023/09/12 12:06:47;;;;;;;13.68;4.25;;;;;;;;;;4978906;28;20080;-76
2023/09/12 12:09:13;;;;;;;17.80;4.05;;;;;;;;;;4996403;28;20018;-77
2023/09/12 12:11:39;;;;;;;8.20;3.90;;;;;;;;;;4996212;28;20022;-76
2023/09/12 12:14:11;;;;;;;10.02;3.97;;;;;;;;;;4996250;28;20026;-76
2023/09/12 12:16:36;;;;;;;9.98;4.22;;;;;;;;;;4996130;28;20400;-75
2023/09/12 12:19:01;;;;;;;14.00;4.20;;;;;;;;;;4996520;28;20106;-76
2023/09/12 12:21:27;;;;;;;8.55;3.92;;;;;;;;;;4997086;28;20334;-76
2023/09/12 12:24:00;;;;;;;8.57;3.92;;;;;;;;;;4978930;28;20105;-76
2023/09/12 12:26:26;;;;;;;11.82;4.35;;;;;;;;;;4996532;28;20032;-76
2023/09/12 12:28:52;;;;;;;15.07;4.55;;;;;;;;;;4978713;28;20027;-75
2023/09/12 12:31:17;;;;;;;11.85;4.65;;;;;;;;;;4996537;28;20031;-76
2023/09/12 12:34:05;;;;;;;9.52;3.78;;;;;;;;;;4995925;28;20027;-75
2023/09/12 12:36:31;;;;;;;14.70;4.57;;;;;;;;;;4996149;28;20034;-76
2023/09/12 12:38:56;;;;;;;8.48;3.92;;;;;;;;;;4978228;28;20117;-76
2023/09/12 12:41:23;;;;;;;6.43;3.97;;;;;;;;;;4995687;28;20096;-75
2023/09/12 12:43:54;;;;;;;12.90;3.97;;;;;;;;;;4995594;28;20026;-75
2023/09/12 12:46:21;;;;;;;8.98;3.83;;;;;;;;;;4980269;28;20022;-76
2023/09/12 12:48:47;;;;;;;11.15;4.43;;;;;;;;;;4996106;28;20041;-75
2023/09/12 12:51:23;;;;;;;9.55;4.18;;;;;;;;;;4996473;28;20033;-75
2023/09/12 12:53:50;;;;;;;8.95;3.75;;;;;;;;;;4995800;28;20173;-76
2023/09/12 12:56:18;;;;;;;13.25;3.60;;;;;;;;;;4995773;28;20470;-75
2023/09/12 12:58:48;;;;;;;9.38;4.20;;;;;;;;;;4996234;28;20108;-75
2023/09/12 13:01:14;;;;;;;11.98;4.15;;;;;;;;;;4995716;28;20045;-76
2023/09/12 13:03:40;;;;;;;7.53;4.05;;;;;;;;;;4996290;28;20034;-76
2023/09/12 13:06:07;;;;;;;11.38;4.20;;;;;;;;;;4995681;28;20489;-75
2023/09/12 13:08:34;;;;;;;10.45;4.07;;;;;;;;;;4994647;28;20026;-76
2023/09/12 13:11:00;;;;;;;11.93;3.63;;;;;;;;;;4995031;28;20022;-77
2023/09/12 13:13:26;;;;;;;10.88;3.30;;;;;;;;;;4977569;28;20085;-77
2023/09/12 13:15:51;;;;;;;11.40;4.05;;;;;;;;;;4977519;28;20023;-76
2023/09/12 13:18:17;;;;;;;12.63;3.77;;;;;;;;;;4994952;28;20034;-76
2023/09/12 13:20:43;;;;;;;9.30;3.35;;;;;;;;;;4977494;28;20771;-76
2023/09/12 13:23:08;;;;;;;10.50;3.37;;;;;;;;;;4994849;28;20029;-77
2023/09/12 13:25:33;;;;;;;9.63;3.40;;;;;;;;;;4994978;28;20299;-77
2023/09/12 13:27:59;;;;;;;10.10;4.00;;;;;;;;;;4977513;28;20774;-77
2023/09/12 13:30:24;;;;;;;11.60;3.83;;;;;;;;;;4994884;28;20612;-77
2023/09/12 13:32:49;;;;;;;9.80;3.37;;;;;;;;;;4994704;28;20022;-73
2023/09/12 13:35:14;;;;;;;18.27;3.50;;;;;;;;;;4994607;28;20454;-74
2023/09/12 13:37:40;;;;;;;11.63;3.97;;;;;;;;;;4994811;28;20095;-77
2023/09/12 13:40:08;;;;;;;13.35;3.47;;;;;;;;;;4994610;28;20138;-75
2023/09/12 13:42:34;;;;;;;11.15;3.63;;;;;;;;;;4993853;28;20026;-75
2023/09/12 13:44:59;;;;;;;10.83;3.83;;;;;;;;;;4992510;28;20037;-76
2023/09/12 13:47:25;;;;;;;12.13;4.00;;;;;;;;;;4975699;28;20624;-75
2023/09/12 13:49:53;;;;;;;11.25;3.65;;;;;;;;;;4994016;28;20271;-75
2023/09/12 13:52:21;;;;;;;11.93;4.15;;;;;;;;;;4976824;28;20061;-75
2023/09/12 13:54:47;;;;;;;10.57;3.63;;;;;;;;;;4993150;28;20030;-76
2023/09/12 13:57:13;;;;;;;11.55;4.00;;;;;;;;;;4992119;28;20077;-76
2023/09/12 13:59:38;;;;;;;11.32;3.90;;;;;;;;;;4992156;28;20041;-76
2023/09/12 14:02:03;;;;;;;8.63;3.95;;;;;;;;;;4992126;28;20386;-76
2023/09/12 14:04:29;;;;;;;8.90;3.72;;;;;;;;;;4992120;28;20345;-75
2023/09/12 14:06:54;;;;;;;7.90;3.47;;;;;;;;;;4992202;28;20022;-75
2023/09/12 14:09:19;;;;;;;8.60;3.53;;;;;;;;;;4975245;28;20344;-75
2023/09/12 14:11:46;;;;;;;7.30;3.80;;;;;;;;;;4993021;28;20264;-75
2023/09/12 14:14:11;;;;;;;10.02;3.35;;;;;;;;;;4994229;28;20716;-75
2023/09/12 14:16:37;;;;;;;8.65;3.55;;;;;;;;;;4993927;28;20080;-75
2023/09/12 14:19:02;;;;;;;13.07;3.40;;;;;;;;;;4993944;28;20018;-75
2023/09/12 14:21:27;;;;;;;12.52;3.50;;;;;;;;;;4994374;28;20296;-75
2023/09/12 14:23:52;;;;;;;16.37;3.43;;;;;;;;;;4993781;28;20113;-75
2023/09/12 14:26:17;;;;;;;15.23;3.23;;;;;;;;;;4993812;28;20057;-76
2023/09/12 14:28:43;;;;;;;14.40;3.70;;;;;;;;;;4993699;28;20089;-75
2023/09/12 14:31:13;;;;;;;8.15;3.30;;;;;;;;;;4996219;28;20037;-76
2023/09/12 14:33:39;;;;;;;14.02;3.08;;;;;;;;;;4976084;28;20023;-75
2023/09/12 14:36:04;;;;;;;9.80;3.28;;;;;;;;;;4976120;28;20026;-75
2023/09/12 14:38:29;;;;;;;9.70;3.13;;;;;;;;;;4993793;28;20042;-75
2023/09/12 14:40:55;;;;;;;9.30;3.40;;;;;;;;;;4994050;28;20393;-76
2023/09/12 14:43:21;;;;;;;13.13;3.20;;;;;;;;;;4994566;28;20037;-75
2023/09/12 14:45:46;;;;;;;12.70;3.13;;;;;;;;;;4994488;28;20022;-77
2023/09/12 14:48:11;;;;;;;9.00;3.03;;;;;;;;;;4993464;28;20069;-76
2023/09/12 14:50:37;;;;;;;11.05;3.25;;;;;;;;;;4975969;28;20298;-75
2023/09/12 14:53:02;;;;;;;11.70;3.03;;;;;;;;;;4993345;28;20045;-75
2023/09/12 14:55:28;;;;;;;10.23;3.00;;;;;;;;;;4993757;28;20294;-78
2023/09/12 14:57:56;;;;;;;8.88;2.90;;;;;;;;;;4993947;28;20034;-75
2023/09/12 15:00:22;;;;;;;9.23;3.25;;;;;;;;;;4993911;28;20033;-75
2023/09/12 15:02:47;;;;;;;11.30;3.30;;;;;;;;;;4975792;28;20034;-75
2023/09/12 15:05:12;;;;;;;12.25;3.40;;;;;;;;;;4975730;28;20458;-75
2023/09/12 15:07:38;;;;;;;9.55;3.17;;;;;;;;;;4993308;28;20088;-76
2023/09/12 15:10:04;;;;;;;14.82;3.38;;;;;;;;;;4975857;28;20405;-75
2023/09/12 15:12:30;;;;;;;14.60;3.13;;;;;;;;;;4975736;28;20116;-76
2023/09/12 15:14:55;;;;;;;9.73;3.10;;;;;;;;;;4993259;28;20061;-76
2023/09/12 15:17:20;;;;;;;7.60;3.00;;;;;;;;;;4993101;28;20034;-75
2023/09/12 15:19:46;;;;;;;13.30;3.28;;;;;;;;;;4993310;28;20076;-77
2023/09/12 15:22:13;;;;;;;11.85;3.40;;;;;;;;;;4993314;28;20029;-76
2023/09/12 15:24:40;;;;;;;19.17;3.55;;;;;;;;;;4997204;28;20109;-76
2023/09/12 15:27:05;;;;;;;14.48;3.05;;;;;;;;;;4997067;28;20018;-75
2023/09/12 15:29:31;;;;;;;9.93;3.47;;;;;;;;;;4997099;28;20045;-75
2023/09/12 15:31:56;;;;;;;11.82;3.20;;;;;;;;;;4979450;28;20248;-75